createdAt,value
2019-03-30T00:01:27.441Z,55.35
2019-03-30T00:07:32.201Z,54.13
2019-03-30T00:13:37.000Z,53.73
2019-03-30T00:19:41.754Z,54.18
2019-03-30T00:25:46.494Z,53.23
2019-03-30T00:31:51.251Z,54.48
2019-03-30T00:37:55.994Z,53.63
2019-03-30T00:44:00.719Z,52.73
2019-03-30T00:50:06.002Z,50.67
2019-03-30T00:56:10.861Z,52.03
2019-03-30T01:02:15.619Z,52.40
2019-03-30T01:08:20.420Z,52.15
2019-03-30T01:14:25.198Z,52.98
2019-03-30T01:20:29.976Z,53.05
2019-03-30T01:26:34.708Z,53.08
2019-03-30T01:32:39.474Z,53.35
2019-03-30T01:38:44.353Z,49.48
2019-03-30T01:44:49.164Z,53.60
2019-03-30T01:50:53.893Z,54.00
2019-03-30T01:56:58.608Z,52.70
2019-03-30T02:03:03.322Z,50.50
2019-03-30T02:09:08.191Z,53.63
2019-03-30T02:15:12.950Z,50.75
2019-03-30T02:21:17.681Z,48.80
2019-03-30T02:27:22.426Z,49.73
2019-03-30T02:33:27.220Z,49.08
2019-03-30T02:39:32.015Z,46.50
2019-03-30T02:45:36.744Z,45.33
2019-03-30T02:51:41.630Z,42.30
2019-03-30T02:57:46.368Z,47.08
2019-03-30T03:03:51.309Z,47.23
2019-03-30T03:09:56.057Z,44.45
2019-03-30T03:16:00.809Z,44.93
2019-03-30T03:22:05.890Z,46.20
2019-03-30T03:28:10.815Z,43.92
2019-03-30T03:34:15.627Z,43.83
2019-03-30T03:40:20.755Z,45.85
2019-03-30T03:46:25.484Z,44.90
2019-03-30T03:52:30.340Z,46.77
2019-03-30T03:58:36.158Z,46.95
2019-03-30T04:04:47.062Z,46.63
2019-03-30T04:10:51.415Z,41.98
2019-03-30T04:16:56.338Z,42.67
2019-03-30T04:23:01.071Z,45.00
2019-03-30T04:29:05.833Z,47.00
2019-03-30T04:35:10.583Z,46.95
2019-03-30T04:41:15.547Z,47.50
2019-03-30T04:47:20.795Z,45.65
2019-03-30T04:53:25.532Z,43.65
2019-03-30T04:59:30.578Z,42.80
2019-03-30T05:05:35.379Z,44.50
2019-03-30T05:11:40.145Z,47.23
2019-03-30T05:17:47.932Z,42.58
2019-03-30T05:23:51.829Z,43.02
2019-03-30T05:29:56.722Z,42.80
2019-03-30T05:36:01.583Z,42.70
2019-03-30T05:42:06.452Z,42.53
2019-03-30T05:48:11.170Z,42.93
2019-03-30T05:54:15.963Z,40.80
2019-03-30T06:00:23.137Z,43.38
2019-03-30T06:06:27.896Z,43.13
2019-03-30T06:12:32.608Z,44.80
2019-03-30T06:18:37.360Z,39.13
2019-03-30T06:24:42.112Z,40.08
2019-03-30T06:30:46.832Z,41.95
2019-03-30T06:36:51.572Z,45.08
2019-03-30T06:42:56.658Z,43.78
2019-03-30T06:49:01.579Z,47.85
2019-03-30T06:55:06.597Z,46.85
2019-03-30T07:01:11.538Z,47.95
2019-03-30T07:07:17.096Z,47.67
2019-03-30T07:13:26.440Z,47.50
2019-03-30T07:19:33.405Z,49.25
2019-03-30T07:25:38.227Z,48.98
2019-03-30T07:31:43.085Z,50.88
2019-03-30T07:37:47.814Z,51.18
2019-03-30T07:43:52.611Z,50.65
2019-03-30T07:49:57.549Z,49.85
2019-03-30T07:56:08.209Z,47.23
2019-03-30T08:02:08.904Z,45.50
2019-03-30T08:08:13.653Z,44.15
2019-03-30T08:14:18.517Z,42.75
2019-03-30T08:20:23.398Z,43.20
2019-03-30T08:26:28.231Z,43.90
2019-03-30T08:32:33.057Z,41.20
2019-03-30T08:38:37.957Z,42.88
2019-03-30T08:44:42.847Z,41.70
2019-03-30T08:50:47.604Z,42.80
2019-03-30T08:56:52.462Z,42.58
2019-03-30T09:02:57.341Z,40.10
2019-03-30T09:09:02.135Z,32.93
2019-03-30T09:15:07.596Z,38.33
2019-03-30T09:21:12.434Z,37.05
2019-03-30T09:27:17.255Z,30.27
2019-03-30T09:33:21.997Z,33.02
2019-03-30T09:39:26.790Z,29.98
2019-03-30T09:45:31.621Z,28.23
2019-03-30T09:51:36.416Z,26.37
2019-03-30T09:57:41.187Z,28.70
2019-03-30T10:03:45.924Z,23.80
2019-03-30T10:09:50.666Z,16.20
2019-03-30T10:15:55.476Z,18.92
2019-03-30T10:22:00.313Z,18.65
2019-03-30T10:28:05.022Z,22.10
2019-03-30T10:34:09.786Z,20.77
2019-03-30T10:40:14.531Z,19.40
2019-03-30T10:46:19.266Z,11.30
2019-03-30T10:52:24.000Z,14.87
2019-03-30T10:58:28.748Z,20.05
2019-03-30T11:04:33.496Z,19.95
2019-03-30T11:10:38.410Z,16.10
2019-03-30T11:16:43.205Z,15.40
2019-03-30T11:22:47.990Z,10.78
2019-03-30T11:28:52.752Z,18.42
2019-03-30T11:34:57.589Z,16.97
2019-03-30T11:41:02.548Z,16.10
2019-03-30T11:47:07.324Z,13.08
2019-03-30T11:53:12.145Z,12.73
2019-03-30T11:59:16.879Z,20.52
2019-03-30T12:05:21.616Z,14.58
2019-03-30T12:11:26.363Z,17.82
2019-03-30T12:17:31.122Z,11.48
2019-03-30T12:23:35.891Z,19.25
2019-03-30T12:29:44.297Z,13.18
2019-03-30T12:35:47.546Z,16.75
2019-03-30T12:41:52.745Z,18.95
2019-03-30T12:47:57.475Z,15.83
2019-03-30T12:54:02.304Z,19.80
2019-03-30T13:00:07.221Z,19.48
2019-03-30T13:06:12.111Z,18.80
2019-03-30T13:12:16.873Z,16.45
2019-03-30T13:18:21.683Z,17.12
2019-03-30T13:24:26.416Z,12.30
2019-03-30T13:30:31.393Z,12.75
2019-03-30T13:36:42.976Z,19.80
2019-03-30T13:42:47.713Z,11.35
2019-03-30T13:48:52.531Z,11.75
2019-03-30T13:54:57.287Z,13.60
2019-03-30T14:01:02.298Z,15.55
2019-03-30T14:07:07.089Z,15.72
2019-03-30T14:13:11.849Z,14.55
2019-03-30T14:19:16.615Z,14.75
2019-03-30T14:25:21.450Z,15.60
2019-03-30T14:31:26.199Z,12.78
2019-03-30T14:37:30.992Z,15.60
2019-03-30T14:43:35.896Z,16.57
2019-03-30T14:49:40.662Z,13.72
2019-03-30T14:55:45.429Z,15.03
2019-03-30T15:01:50.226Z,9.78
2019-03-30T15:07:55.121Z,11.97
2019-03-30T15:13:59.920Z,15.13
2019-03-30T15:20:04.710Z,11.30
2019-03-30T15:26:09.455Z,15.85
2019-03-30T15:32:14.174Z,16.17
2019-03-30T15:38:18.952Z,17.23
2019-03-30T15:44:25.680Z,11.93
2019-03-30T15:50:30.525Z,20.15
2019-03-30T15:56:35.278Z,20.10
2019-03-30T16:02:40.063Z,20.05
2019-03-30T16:08:44.805Z,19.60
2019-03-30T16:14:49.547Z,20.37
2019-03-30T16:20:54.294Z,20.82
2019-03-30T16:26:59.030Z,21.33
2019-03-30T16:33:03.828Z,23.00
2019-03-30T16:39:08.819Z,25.62
2019-03-30T16:45:16.713Z,26.35
2019-03-30T16:51:21.534Z,32.25
2019-03-30T16:57:26.285Z,33.53
2019-03-30T17:03:31.113Z,33.78
2019-03-30T17:09:35.867Z,32.45
2019-03-30T17:15:40.625Z,30.57
2019-03-30T17:21:45.358Z,29.32
2019-03-30T17:27:58.005Z,31.80
2019-03-30T17:33:56.633Z,33.20
2019-03-30T17:40:01.403Z,33.75
2019-03-30T17:46:06.587Z,32.67
2019-03-30T17:52:11.387Z,35.55
2019-03-30T17:58:16.125Z,37.73
2019-03-30T18:04:20.833Z,39.05
2019-03-30T18:10:25.567Z,38.48
2019-03-30T18:16:30.291Z,38.53
2019-03-30T18:22:35.032Z,37.13
2019-03-30T18:28:39.822Z,40.25
2019-03-30T18:34:44.735Z,38.02
2019-03-30T18:40:49.482Z,40.35
2019-03-30T18:46:54.292Z,40.45
2019-03-30T18:52:59.797Z,37.75
2019-03-30T18:59:04.627Z,41.73
2019-03-30T19:05:09.620Z,40.78
2019-03-30T19:11:15.262Z,41.10
2019-03-30T19:17:20.006Z,41.75
2019-03-30T19:23:24.759Z,42.80
2019-03-30T19:29:29.586Z,44.23
2019-03-30T19:35:34.330Z,45.03
2019-03-30T19:41:39.097Z,44.55
2019-03-30T19:47:43.912Z,44.73
2019-03-30T19:53:48.816Z,43.73
2019-03-30T19:59:53.620Z,45.00
2019-03-30T20:05:58.365Z,43.95
2019-03-30T20:12:03.238Z,45.35
2019-03-30T20:18:08.414Z,47.00
2019-03-30T20:24:13.296Z,44.58
2019-03-30T20:30:19.209Z,42.67
2019-03-30T20:36:23.925Z,43.02
2019-03-30T20:42:28.897Z,39.58
2019-03-30T20:48:33.759Z,40.48
2019-03-30T20:54:38.493Z,39.95
2019-03-30T21:00:43.291Z,40.12
2019-03-30T21:06:48.039Z,42.00
2019-03-30T21:12:52.789Z,42.13
2019-03-30T21:18:57.540Z,36.90
2019-03-30T21:25:02.339Z,39.33
2019-03-30T21:31:07.086Z,38.08
2019-03-30T21:37:11.816Z,37.70
2019-03-30T21:43:19.545Z,40.78
2019-03-30T21:49:23.084Z,41.05
2019-03-30T21:55:27.802Z,39.83
2019-03-30T22:01:32.549Z,36.93
2019-03-30T22:07:38.188Z,37.75
2019-03-30T22:13:42.923Z,39.60
2019-03-30T22:19:47.674Z,42.40
2019-03-30T22:25:52.416Z,41.08
2019-03-30T22:31:57.230Z,41.95
2019-03-30T22:38:02.025Z,41.90
2019-03-30T22:44:06.940Z,41.83
2019-03-30T22:50:12.538Z,41.33
2019-03-30T22:56:17.396Z,39.85
2019-03-30T23:02:22.280Z,39.45
2019-03-30T23:08:27.001Z,40.17
2019-03-30T23:14:31.764Z,39.63
2019-03-30T23:20:36.578Z,41.18
2019-03-30T23:26:41.323Z,40.92
2019-03-30T23:32:46.068Z,41.33
2019-03-30T23:38:50.801Z,43.05
2019-03-30T23:44:55.559Z,39.25
2019-03-30T23:51:00.305Z,39.00
2019-03-30T23:57:05.115Z,36.58
